TCA7378 SKRG-MPTO
Flight info
| Callsign | TCA7378 |
|---|---|
| Flight time | 0h 49m |
| Altitude | 30000 |
| Route | OPMEL3C OPMEL DCT SIGUN DCT ISOKO ISOKO2 |
| Aircraft | B738/M-SDE2E3FGHIRWXY/LB1 |
Departure
| Time | 2026-05-09 13:33 |
|---|---|
| Airport | Jose Maria Córdova International Airport (SKRG) |
Arrival
| Time | 2026-05-09 14:22 |
|---|---|
| Airport | Tocumen International Airport (MPTO) |
| Time | Latitude | Longitude | Altitude | Speed | Heading |
|---|---|---|---|---|---|
| 2026-05-09 13:13 | 6.17030 | -75.42713 | 7017 ft | 0 kts | 308° |
| 2026-05-09 13:25 | 6.17030 | -75.42712 | 7022 ft | 2 kts | 308° |
| 2026-05-09 13:26 | 6.17012 | -75.42693 | 7020 ft | 4 kts | 321° |
| 2026-05-09 13:26 | 6.16990 | -75.42678 | 7021 ft | 4 kts | 332° |
| 2026-05-09 13:26 | 6.16980 | -75.42672 | 7017 ft | 1 kts | 332° |
| 2026-05-09 13:26 | 6.16979 | -75.42672 | 7017 ft | 0 kts | 332° |
| 2026-05-09 13:28 | 6.16984 | -75.42674 | 7019 ft | 4 kts | 338° |
| 2026-05-09 13:28 | 6.17030 | -75.42650 | 7018 ft | 12 kts | 52° |
| 2026-05-09 13:28 | 6.16983 | -75.42559 | 7016 ft | 20 kts | 148° |
| 2026-05-09 13:29 | 6.16842 | -75.42486 | 6999 ft | 27 kts | 172° |
| 2026-05-09 13:29 | 6.16647 | -75.42482 | 6989 ft | 23 kts | 179° |
| 2026-05-09 13:29 | 6.16485 | -75.42481 | 6987 ft | 24 kts | 179° |
| 2026-05-09 13:29 | 6.16313 | -75.42479 | 6980 ft | 24 kts | 179° |
| 2026-05-09 13:30 | 6.16147 | -75.42477 | 6976 ft | 23 kts | 180° |
| 2026-05-09 13:30 | 6.15990 | -75.42477 | 6975 ft | 22 kts | 179° |
| 2026-05-09 13:30 | 6.15834 | -75.42475 | 6974 ft | 23 kts | 179° |
| 2026-05-09 13:30 | 6.15670 | -75.42474 | 6974 ft | 24 kts | 179° |
| 2026-05-09 13:31 | 6.15499 | -75.42473 | 6975 ft | 25 kts | 180° |
| 2026-05-09 13:31 | 6.15321 | -75.42473 | 6973 ft | 26 kts | 180° |
| 2026-05-09 13:31 | 6.15147 | -75.42472 | 6977 ft | 25 kts | 180° |
| 2026-05-09 13:31 | 6.14972 | -75.42472 | 6977 ft | 26 kts | 180° |
| 2026-05-09 13:32 | 6.14884 | -75.42404 | 6975 ft | 19 kts | 90° |
| 2026-05-09 13:32 | 6.15100 | -75.42299 | 6979 ft | 46 kts | 359° |
| 2026-05-09 13:32 | 6.15670 | -75.42304 | 6980 ft | 116 kts | 359° |
| 2026-05-09 13:33 | 6.16684 | -75.42311 | 6992 ft | 173 kts | 360° |
| 2026-05-09 13:33 | 6.17944 | -75.42320 | 7594 ft | 184 kts | 360° |
| 2026-05-09 13:33 | 6.19235 | -75.42327 | 8447 ft | 187 kts | 0° |
| 2026-05-09 13:33 | 6.20537 | -75.42328 | 9193 ft | 198 kts | 0° |
| 2026-05-09 13:34 | 6.22014 | -75.42333 | 9432 ft | 225 kts | 0° |
| 2026-05-09 13:34 | 6.23668 | -75.42346 | 9612 ft | 251 kts | 0° |
| 2026-05-09 13:34 | 6.25489 | -75.42364 | 9887 ft | 270 kts | 0° |
| 2026-05-09 13:34 | 6.27422 | -75.42378 | 10182 ft | 289 kts | 0° |
| 2026-05-09 13:35 | 6.29524 | -75.42395 | 10333 ft | 316 kts | 360° |
| 2026-05-09 13:35 | 6.31813 | -75.42413 | 10557 ft | 342 kts | 0° |
| 2026-05-09 13:35 | 6.34266 | -75.42422 | 10919 ft | 360 kts | 1° |
| 2026-05-09 13:35 | 6.36785 | -75.42397 | 11400 ft | 372 kts | 1° |
| 2026-05-09 13:36 | 6.39385 | -75.42383 | 12119 ft | 376 kts | 358° |
| 2026-05-09 13:36 | 6.41937 | -75.42980 | 12848 ft | 382 kts | 334° |
| 2026-05-09 13:36 | 6.44104 | -75.44511 | 13668 ft | 383 kts | 315° |
| 2026-05-09 13:36 | 6.45689 | -75.46664 | 14384 ft | 385 kts | 300° |
| 2026-05-09 13:37 | 6.47019 | -75.49020 | 15021 ft | 390 kts | 298° |
| 2026-05-09 13:37 | 6.48342 | -75.51417 | 15666 ft | 394 kts | 299° |
| 2026-05-09 13:37 | 6.49696 | -75.53817 | 16364 ft | 395 kts | 300° |
| 2026-05-09 13:37 | 6.51059 | -75.56186 | 16971 ft | 398 kts | 300° |
| 2026-05-09 13:38 | 6.52460 | -75.58603 | 17570 ft | 402 kts | 300° |
| 2026-05-09 13:38 | 6.53873 | -75.61039 | 18162 ft | 405 kts | 300° |
| 2026-05-09 13:38 | 6.55293 | -75.63487 | 18721 ft | 408 kts | 300° |
| 2026-05-09 13:38 | 6.56727 | -75.65960 | 19253 ft | 411 kts | 300° |
| 2026-05-09 13:39 | 6.58172 | -75.68455 | 19735 ft | 415 kts | 300° |
| 2026-05-09 13:39 | 6.59628 | -75.70971 | 20225 ft | 418 kts | 300° |
| 2026-05-09 13:39 | 6.61097 | -75.73507 | 20707 ft | 421 kts | 300° |
| 2026-05-09 13:39 | 6.62575 | -75.76059 | 21159 ft | 424 kts | 300° |
| 2026-05-09 13:40 | 6.64044 | -75.78597 | 21628 ft | 427 kts | 299° |
| 2026-05-09 13:40 | 6.65541 | -75.81186 | 22037 ft | 430 kts | 299° |
| 2026-05-09 13:40 | 6.67049 | -75.83795 | 22450 ft | 433 kts | 299° |
| 2026-05-09 13:40 | 6.68567 | -75.86419 | 22856 ft | 435 kts | 299° |
| 2026-05-09 13:41 | 6.70093 | -75.89058 | 23235 ft | 438 kts | 299° |
| 2026-05-09 13:41 | 6.71628 | -75.91714 | 23568 ft | 440 kts | 299° |
| 2026-05-09 13:41 | 6.73174 | -75.94388 | 23892 ft | 443 kts | 299° |
| 2026-05-09 13:41 | 6.74543 | -75.97125 | 24209 ft | 445 kts | 291° |
| 2026-05-09 13:42 | 6.75621 | -76.00047 | 24561 ft | 446 kts | 288° |
| 2026-05-09 13:42 | 6.76603 | -76.03010 | 24894 ft | 448 kts | 287° |
| 2026-05-09 13:42 | 6.77567 | -76.06006 | 25182 ft | 452 kts | 287° |
| 2026-05-09 13:42 | 6.78544 | -76.09016 | 25481 ft | 454 kts | 287° |
| 2026-05-09 13:43 | 6.79544 | -76.12036 | 25757 ft | 456 kts | 288° |
| 2026-05-09 13:43 | 6.80566 | -76.15066 | 26054 ft | 458 kts | 288° |
| 2026-05-09 13:43 | 6.81605 | -76.18102 | 26346 ft | 460 kts | 288° |
| 2026-05-09 13:43 | 6.82656 | -76.21151 | 26626 ft | 462 kts | 289° |
| 2026-05-09 13:44 | 6.83700 | -76.24170 | 26888 ft | 464 kts | 289° |
| 2026-05-09 13:44 | 6.84765 | -76.27242 | 27130 ft | 466 kts | 289° |
| 2026-05-09 13:44 | 6.85837 | -76.30330 | 27386 ft | 468 kts | 289° |
| 2026-05-09 13:44 | 6.86912 | -76.33430 | 27636 ft | 470 kts | 289° |
| 2026-05-09 13:45 | 6.87988 | -76.36537 | 27879 ft | 472 kts | 289° |
| 2026-05-09 13:45 | 6.89070 | -76.39662 | 28120 ft | 474 kts | 289° |
| 2026-05-09 13:45 | 6.90157 | -76.42806 | 28337 ft | 476 kts | 289° |
| 2026-05-09 13:45 | 6.91244 | -76.45954 | 28554 ft | 478 kts | 289° |
| 2026-05-09 13:46 | 6.92323 | -76.49078 | 28782 ft | 480 kts | 289° |
| 2026-05-09 13:46 | 6.93418 | -76.52256 | 29006 ft | 481 kts | 289° |
| 2026-05-09 13:46 | 6.94518 | -76.55444 | 29259 ft | 482 kts | 289° |
| 2026-05-09 13:46 | 6.95613 | -76.58613 | 29711 ft | 477 kts | 289° |
| 2026-05-09 13:47 | 6.96697 | -76.61745 | 29891 ft | 473 kts | 289° |
| 2026-05-09 13:47 | 6.97776 | -76.64866 | 29907 ft | 472 kts | 289° |
| 2026-05-09 13:47 | 6.99936 | -76.71124 | 29834 ft | 479 kts | 289° |
| 2026-05-09 13:48 | 7.02119 | -76.77455 | 29844 ft | 479 kts | 289° |
| 2026-05-09 13:48 | 7.04298 | -76.83782 | 29834 ft | 478 kts | 289° |
| 2026-05-09 13:49 | 7.06474 | -76.90096 | 29839 ft | 477 kts | 289° |
| 2026-05-09 13:49 | 7.08649 | -76.96410 | 29830 ft | 477 kts | 289° |
| 2026-05-09 13:50 | 7.10804 | -77.02674 | 29834 ft | 477 kts | 289° |
| 2026-05-09 13:50 | 7.12976 | -77.08989 | 29828 ft | 477 kts | 289° |
| 2026-05-09 13:51 | 7.15152 | -77.15313 | 29833 ft | 478 kts | 289° |
| 2026-05-09 13:51 | 7.17313 | -77.21603 | 29837 ft | 478 kts | 289° |
| 2026-05-09 13:52 | 7.19490 | -77.27940 | 29832 ft | 479 kts | 289° |
| 2026-05-09 13:52 | 7.21671 | -77.34289 | 29836 ft | 480 kts | 289° |
| 2026-05-09 13:53 | 7.23851 | -77.40641 | 29829 ft | 481 kts | 289° |
| 2026-05-09 13:53 | 7.26035 | -77.47007 | 29838 ft | 481 kts | 289° |
| 2026-05-09 13:54 | 7.28205 | -77.53337 | 29837 ft | 482 kts | 289° |
| 2026-05-09 13:54 | 7.30389 | -77.59713 | 29835 ft | 481 kts | 289° |
| 2026-05-09 13:55 | 7.32573 | -77.66089 | 29834 ft | 482 kts | 289° |
| 2026-05-09 13:55 | 7.34743 | -77.72430 | 29830 ft | 482 kts | 289° |
| 2026-05-09 13:56 | 7.36931 | -77.78819 | 29829 ft | 482 kts | 289° |
| 2026-05-09 13:56 | 7.39675 | -77.84972 | 29838 ft | 483 kts | 302° |
| 2026-05-09 13:57 | 7.43885 | -77.90216 | 29843 ft | 482 kts | 312° |
| 2026-05-09 13:57 | 7.48356 | -77.95271 | 29827 ft | 484 kts | 312° |
| 2026-05-09 13:58 | 7.52783 | -78.00330 | 29827 ft | 485 kts | 311° |
| 2026-05-09 13:58 | 7.57216 | -78.05457 | 29822 ft | 485 kts | 311° |
| 2026-05-09 13:59 | 7.61644 | -78.10605 | 29822 ft | 486 kts | 311° |
| 2026-05-09 13:59 | 7.66062 | -78.15738 | 29823 ft | 479 kts | 311° |
| 2026-05-09 14:00 | 7.68220 | -78.18247 | 29502 ft | 469 kts | 311° |
| 2026-05-09 14:00 | 7.68913 | -78.19053 | 29391 ft | 465 kts | 311° |
| 2026-05-09 14:00 | 7.72387 | -78.23091 | 28571 ft | 454 kts | 311° |
| 2026-05-09 14:00 | 7.74444 | -78.25482 | 28084 ft | 448 kts | 311° |
| 2026-05-09 14:01 | 7.76477 | -78.27845 | 27579 ft | 443 kts | 311° |
| 2026-05-09 14:01 | 7.78488 | -78.30182 | 27080 ft | 439 kts | 311° |
| 2026-05-09 14:01 | 7.80480 | -78.32496 | 26579 ft | 435 kts | 310° |
| 2026-05-09 14:01 | 7.82452 | -78.34789 | 26087 ft | 431 kts | 310° |
| 2026-05-09 14:02 | 7.84406 | -78.37063 | 25595 ft | 427 kts | 310° |
| 2026-05-09 14:02 | 7.86337 | -78.39311 | 25108 ft | 423 kts | 310° |
| 2026-05-09 14:02 | 7.88260 | -78.41548 | 24628 ft | 419 kts | 310° |
| 2026-05-09 14:02 | 7.90133 | -78.43726 | 24158 ft | 415 kts | 310° |
| 2026-05-09 14:03 | 7.92018 | -78.45919 | 23682 ft | 412 kts | 310° |
| 2026-05-09 14:03 | 7.93888 | -78.48096 | 23209 ft | 409 kts | 310° |
| 2026-05-09 14:03 | 7.95743 | -78.50256 | 22743 ft | 405 kts | 310° |
| 2026-05-09 14:03 | 7.97582 | -78.52396 | 22273 ft | 402 kts | 310° |
| 2026-05-09 14:04 | 7.99404 | -78.54519 | 21810 ft | 399 kts | 310° |
| 2026-05-09 14:04 | 8.01211 | -78.56625 | 21355 ft | 395 kts | 310° |
| 2026-05-09 14:04 | 8.02979 | -78.58684 | 20894 ft | 392 kts | 310° |
| 2026-05-09 14:04 | 8.04755 | -78.60754 | 20439 ft | 388 kts | 310° |
| 2026-05-09 14:05 | 8.06511 | -78.62802 | 19989 ft | 385 kts | 310° |
| 2026-05-09 14:05 | 8.08257 | -78.64835 | 19540 ft | 381 kts | 310° |
| 2026-05-09 14:05 | 8.09986 | -78.66849 | 19099 ft | 378 kts | 310° |
| 2026-05-09 14:05 | 8.11698 | -78.68846 | 18661 ft | 375 kts | 310° |
| 2026-05-09 14:06 | 8.13397 | -78.70828 | 18218 ft | 372 kts | 310° |
| 2026-05-09 14:06 | 8.15083 | -78.72794 | 17782 ft | 369 kts | 310° |
| 2026-05-09 14:06 | 8.16731 | -78.74715 | 17451 ft | 363 kts | 310° |
| 2026-05-09 14:06 | 8.18355 | -78.76610 | 17303 ft | 351 kts | 310° |
| 2026-05-09 14:07 | 8.19931 | -78.78449 | 17153 ft | 342 kts | 310° |
| 2026-05-09 14:07 | 8.21464 | -78.80238 | 17000 ft | 332 kts | 310° |
| 2026-05-09 14:07 | 8.22955 | -78.81978 | 16863 ft | 323 kts | 310° |
| 2026-05-09 14:07 | 8.24472 | -78.83626 | 16564 ft | 322 kts | 315° |
| 2026-05-09 14:08 | 8.26101 | -78.85191 | 16234 ft | 324 kts | 317° |
| 2026-05-09 14:08 | 8.27772 | -78.86741 | 15917 ft | 328 kts | 318° |
| 2026-05-09 14:08 | 8.29463 | -78.88304 | 15581 ft | 331 kts | 318° |
| 2026-05-09 14:08 | 8.31140 | -78.89862 | 15238 ft | 333 kts | 318° |
| 2026-05-09 14:09 | 8.32847 | -78.91456 | 14883 ft | 335 kts | 318° |
| 2026-05-09 14:09 | 8.34549 | -78.93055 | 14527 ft | 333 kts | 318° |
| 2026-05-09 14:09 | 8.36236 | -78.94646 | 14175 ft | 330 kts | 318° |
| 2026-05-09 14:09 | 8.37908 | -78.96227 | 13830 ft | 328 kts | 318° |
| 2026-05-09 14:10 | 8.41214 | -78.99357 | 13145 ft | 323 kts | 319° |
| 2026-05-09 14:10 | 8.42850 | -79.00907 | 12807 ft | 321 kts | 319° |
| 2026-05-09 14:10 | 8.44473 | -79.02442 | 12477 ft | 319 kts | 319° |
| 2026-05-09 14:11 | 8.46064 | -79.03949 | 12146 ft | 317 kts | 319° |
| 2026-05-09 14:11 | 8.47665 | -79.05467 | 11813 ft | 315 kts | 319° |
| 2026-05-09 14:11 | 8.49257 | -79.06978 | 11490 ft | 313 kts | 320° |
| 2026-05-09 14:11 | 8.50840 | -79.08477 | 11166 ft | 311 kts | 319° |
| 2026-05-09 14:12 | 8.52413 | -79.09969 | 10825 ft | 309 kts | 320° |
| 2026-05-09 14:12 | 8.53979 | -79.11454 | 10511 ft | 308 kts | 319° |
| 2026-05-09 14:12 | 8.55536 | -79.12930 | 10191 ft | 306 kts | 319° |
| 2026-05-09 14:12 | 8.57061 | -79.14376 | 9870 ft | 303 kts | 319° |
| 2026-05-09 14:13 | 8.58591 | -79.15827 | 9549 ft | 301 kts | 319° |
| 2026-05-09 14:14 | 8.68977 | -79.25680 | 7406 ft | 284 kts | 319° |
| 2026-05-09 14:15 | 8.70392 | -79.27027 | 7111 ft | 282 kts | 319° |
| 2026-05-09 14:15 | 8.71817 | -79.28379 | 6822 ft | 280 kts | 319° |
| 2026-05-09 14:15 | 8.73230 | -79.29722 | 6540 ft | 278 kts | 319° |
| 2026-05-09 14:15 | 8.74633 | -79.31055 | 6251 ft | 275 kts | 319° |
| 2026-05-09 14:16 | 8.76019 | -79.32371 | 5949 ft | 272 kts | 319° |
| 2026-05-09 14:16 | 8.77391 | -79.33674 | 5661 ft | 269 kts | 320° |
| 2026-05-09 14:16 | 8.78753 | -79.34965 | 5393 ft | 267 kts | 320° |
| 2026-05-09 14:16 | 8.80089 | -79.36261 | 5126 ft | 264 kts | 319° |
| 2026-05-09 14:17 | 8.81421 | -79.37528 | 4849 ft | 262 kts | 320° |
| 2026-05-09 14:17 | 8.82748 | -79.38779 | 4577 ft | 260 kts | 320° |
| 2026-05-09 14:17 | 8.84004 | -79.40049 | 4306 ft | 260 kts | 310° |
| 2026-05-09 14:17 | 8.84973 | -79.41589 | 4051 ft | 259 kts | 303° |
| 2026-05-09 14:18 | 8.85895 | -79.43142 | 3775 ft | 257 kts | 304° |
| 2026-05-09 14:18 | 8.86824 | -79.44677 | 3499 ft | 255 kts | 304° |
| 2026-05-09 14:18 | 8.87757 | -79.46191 | 3238 ft | 252 kts | 307° |
| 2026-05-09 14:18 | 8.89006 | -79.47344 | 3020 ft | 239 kts | 342° |
| 2026-05-09 14:19 | 8.90560 | -79.47400 | 2985 ft | 220 kts | 21° |
| 2026-05-09 14:19 | 8.91898 | -79.46738 | 2981 ft | 213 kts | 31° |
| 2026-05-09 14:19 | 8.93145 | -79.45964 | 2728 ft | 221 kts | 35° |
| 2026-05-09 14:19 | 8.94472 | -79.45127 | 2376 ft | 224 kts | 33° |
| 2026-05-09 14:20 | 8.95813 | -79.44351 | 2050 ft | 216 kts | 31° |
| 2026-05-09 14:20 | 8.97083 | -79.43631 | 1766 ft | 204 kts | 30° |
| 2026-05-09 14:20 | 8.98285 | -79.42949 | 1507 ft | 193 kts | 29° |
| 2026-05-09 14:21 | 9.00501 | -79.41688 | 1019 ft | 166 kts | 29° |
| 2026-05-09 14:21 | 9.01456 | -79.41144 | 796 ft | 156 kts | 29° |
| 2026-05-09 14:21 | 9.02394 | -79.40611 | 599 ft | 155 kts | 29° |
| 2026-05-09 14:21 | 9.03331 | -79.40077 | 394 ft | 155 kts | 29° |
| 2026-05-09 14:22 | 9.04266 | -79.39545 | 188 ft | 154 kts | 29° |
| 2026-05-09 14:22 | 9.05190 | -79.39016 | 31 ft | 145 kts | 29° |
| 2026-05-09 14:22 | 9.05913 | -79.38606 | 31 ft | 88 kts | 29° |
| 2026-05-09 14:22 | 9.06264 | -79.38409 | 30 ft | 35 kts | 23° |
| 2026-05-09 14:23 | 9.06447 | -79.38376 | 28 ft | 22 kts | 359° |
| 2026-05-09 14:23 | 9.06578 | -79.38378 | 29 ft | 15 kts | 359° |
| 2026-05-09 14:23 | 9.06657 | -79.38423 | 29 ft | 13 kts | 310° |
| 2026-05-09 14:23 | 9.06733 | -79.38412 | 29 ft | 11 kts | 21° |
| 2026-05-09 14:24 | 9.06808 | -79.38384 | 29 ft | 12 kts | 21° |
| 2026-05-09 14:24 | 9.06885 | -79.38397 | 29 ft | 13 kts | 305° |
| 2026-05-09 14:24 | 9.06953 | -79.38458 | 29 ft | 15 kts | 2° |
| 2026-05-09 14:24 | 9.07057 | -79.38411 | 29 ft | 18 kts | 27° |
| 2026-05-09 14:25 | 9.07160 | -79.38424 | 30 ft | 17 kts | 303° |
| 2026-05-09 14:25 | 9.07221 | -79.38526 | 31 ft | 17 kts | 301° |
| 2026-05-09 14:25 | 9.07173 | -79.38611 | 32 ft | 17 kts | 208° |
| 2026-05-09 14:25 | 9.07080 | -79.38629 | 30 ft | 6 kts | 132° |
| 2026-05-09 14:26 | 9.07069 | -79.38613 | 30 ft | 0 kts | 123° |